Flight Track Log - Related Links

Times and Time Zones

All times are in EDT time to prevent confusion due to time zone crossing. See the AAL832 flight status page for this flight to view local times or setup timezone preferences in your user account.

Time Position Orientation Groundspeed Altitude Reporting Facility
EDT Latitude Longitude Course Direction KTS MPH feet Rate Location/Type
Wed 12:13:04 PM 33.9342 -118.4481 51° Northeast 176 203 1,900  Level Los Angeles Center
Wed 12:14:06 PM 33.9125 -118.5192 250° West 232 267 4,100 2,468 Climbing Los Angeles Center
Wed 12:15:00 PM 34.1443 -118.0448 59° Northeast  Level FlightAware Approximate
Wed 12:15:08 PM 33.8578 -118.5586 211° Southwest 262 302 7,000  Level Los Angeles Center
Wed 12:16:00 PM 34.2155 -117.9023 59° Northeast  Level FlightAware Approximate
Wed 12:16:10 PM 33.8475 -118.4783 99° East 274 315 10,400  Level Los Angeles Center
Wed 12:17:00 PM 34.2872 -117.7767 55° Northeast  Level FlightAware Approximate
Wed 12:17:12 PM 33.8997 -118.4119 47° Northeast 298 343 12,100  Level Los Angeles Center
Wed 12:18:00 PM 34.3671 -117.6410 51° Northeast  Level FlightAware Approximate
Wed 12:18:14 PM 33.9594 -118.3139 54° Northeast 356 410 14,400  Level Los Angeles Center
Wed 12:19:16 PM 34.0206 -118.2103 55° Northeast 374 430 17,000 2,565 Climbing Los Angeles Center
Wed 12:20:18 PM 34.1019 -118.0806 53° Northeast 400 460 19,700 2,371 Climbing Los Angeles Center
Wed 12:21:20 PM 34.1786 -117.9725 49° Northeast 421 484 21,900 1,984 Climbing Los Angeles Center
Wed 12:22:22 PM 34.2567 -117.8619 49° Northeast 431 496 23,800 1,790 Climbing Los Angeles Center
Wed 12:23:24 PM 34.3383 -117.7447 50° Northeast 450 518 25,600 1,790 Climbing Los Angeles Center
Wed 12:24:26 PM 34.4269 -117.6181 50° Northeast 463 533 27,500 1,645 Climbing Los Angeles Center
Wed 12:25:28 PM 34.5108 -117.4956 50° Northeast 474 545 29,000 1,452 Climbing Los Angeles Center
Wed 12:26:30 PM 34.5967 -117.3703 50° Northeast 483 556 30,500 1,645 Climbing Los Angeles Center
Wed 12:27:32 PM 34.6833 -117.2447 50° Northeast 488 562 32,400 1,887 Climbing Los Angeles Center
Wed 12:28:34 PM 34.7858 -117.0950 50° Northeast 485 558 34,400 1,694 Climbing Los Angeles Center
Wed 12:29:36 PM 34.8708 -116.9706 50° Northeast 481 554 35,900 1,258 Climbing Los Angeles Center
Wed 12:30:38 PM 34.9556 -116.8481 50° Northeast 477 549 37,000 532 Climbing Los Angeles Center
Wed 12:31:40 PM 35.0403 -116.7219 51° Northeast 481 554 37,000  Level Los Angeles Center
Wed 12:32:42 PM 35.1250 -116.5981 50° Northeast 479 551 37,000  Level Los Angeles Center
Wed 12:33:44 PM 35.2253 -116.4492 50° Northeast 475 547 37,000  Level Los Angeles Center
Wed 12:34:46 PM 35.3086 -116.3267 50° Northeast 473 544 37,000  Level Los Angeles Center
Wed 12:35:48 PM 35.3908 -116.2031 51° Northeast 471 542 37,000  Level Los Angeles Center
Wed 12:36:50 PM 35.4719 -116.0789 51° Northeast 468 539 37,000  Level Los Angeles Center
Wed 12:37:52 PM 35.5583 -115.9572 49° Northeast 472 543 37,000  Level Los Angeles Center
Wed 12:38:54 PM 35.6397 -115.8303 52° Northeast 467 537 37,000  Level Los Angeles Center
Wed 12:39:56 PM 35.7381 -115.6833 50° Northeast 464 534 37,000  Level Los Angeles Center
Wed 12:40:58 PM 35.8208 -115.5561 51° Northeast 473 544 37,000  Level Los Angeles Center
Wed 12:42:00 PM 35.9036 -115.4289 51° Northeast 478 550 37,000  Level Los Angeles Center
Wed 12:43:02 PM 35.9864 -115.3008 51° Northeast 481 554 37,000  Level Los Angeles Center
Wed 12:44:04 PM 36.0675 -115.1694 53° Northeast 487 560 37,000  Level Los Angeles Center
Wed 12:45:06 PM 36.1164 -114.9761 73° East 498 573 37,000  Level Los Angeles Center
Wed 12:46:08 PM 36.1489 -114.8103 76° East 498 573 37,000  Level Los Angeles Center
Wed 12:47:10 PM 36.1822 -114.6436 76° East 501 577 37,000  Level Los Angeles Center
Wed 12:48:12 PM 36.2075 -114.5086 77° East 503 579 37,000  Level Los Angeles Center
Wed 12:49:14 PM 36.2478 -114.3072 76° East 504 580 37,000  Level Los Angeles Center
Wed 12:50:16 PM 36.2867 -114.1039 77° East 506 582 37,000  Level Los Angeles Center
Wed 12:51:18 PM 36.3192 -113.9350 77° East 506 582 37,000  Level Los Angeles Center
Wed 12:52:20 PM 36.3508 -113.7642 77° East 508 585 37,000  Level Los Angeles Center
Wed 12:53:22 PM 36.3833 -113.5947 77° East 506 582 37,000  Level Los Angeles Center
Wed 12:54:25 PM 36.4147 -113.4256 77° East 505 581 37,000  Level Los Angeles Center
Wed 12:55:27 PM 36.4472 -113.2558 77° East 505 581 37,000  Level Los Angeles Center
Wed 12:56:29 PM 36.4800 -113.0775 77° East 506 582 37,000  Level Los Angeles Center
Wed 12:57:31 PM 36.5178 -112.8731 77° East 508 585 37,000  Level Los Angeles Center
Wed 12:58:33 PM 36.5486 -112.7036 77° East 507 583 37,000  Level Los Angeles Center
Wed 12:59:35 PM 36.5797 -112.5328 77° East 510 587 37,000  Level Los Angeles Center
Wed 01:00:37 PM 36.6100 -112.3614 78° East 510 587 37,000  Level Los Angeles Center
Wed 01:01:39 PM 36.6333 -112.2247 78° East 509 586 37,000  Level Los Angeles Center
Wed 01:02:27 PM 36.6650 -112.0514 77° East 516 594 37,000  Level Denver Center
Wed 01:03:29 PM 36.6928 -111.8811 78° East 509 586 37,000  Level Denver Center
Wed 01:04:31 PM 36.7292 -111.6725 78° East 514 592 37,000  Level Denver Center
Wed 01:05:33 PM 36.7583 -111.4983 78° East 515 593 37,000  Level Denver Center
Wed 01:06:35 PM 36.7889 -111.3225 78° East 518 596 37,000  Level Denver Center
Wed 01:07:37 PM 36.8178 -111.1478 78° East 518 596 37,000  Level Denver Center
Wed 01:08:39 PM 36.8447 -110.9717 79° East 519 597 37,000  Level Denver Center
Wed 01:09:41 PM 36.8792 -110.7594 78° East 521 600 37,000  Level Denver Center
Wed 01:10:43 PM 36.9064 -110.5819 79° East 523 602 37,000  Level Denver Center
Wed 01:11:46 PM 36.9361 -110.4042 78° East 526 605 37,000  Level Denver Center
Wed 01:12:48 PM 36.9647 -110.2244 79° East 525 604 37,000  Level Denver Center
Wed 01:13:50 PM 36.9953 -110.0286 79° East 526 605 37,000  Level Denver Center
Wed 01:14:52 PM 37.0331 -109.8606 74° East 523 602 37,000  Level Denver Center
Wed 01:15:54 PM 37.0869 -109.6628 71° East 531 611 37,000  Level Denver Center
Wed 01:16:56 PM 37.1289 -109.4958 72° East 527 606 37,000  Level Denver Center
Wed 01:17:58 PM 37.1769 -109.3019 73° East 524 603 37,000  Level Denver Center
Wed 01:19:00 PM 37.2200 -109.1350 72° East 525 604 37,000  Level Denver Center
Wed 01:20:02 PM 37.2706 -108.9400 72° East 524 603 37,000  Level Denver Center
Wed 01:21:04 PM 37.3139 -108.7722 72° East 526 605 37,000  Level Denver Center
Wed 01:22:06 PM 37.3625 -108.5747 73° East 528 608 37,000  Level Denver Center
Wed 01:23:08 PM 37.4044 -108.4058 73° East 528 608 37,000  Level Denver Center
Wed 01:24:10 PM 37.4450 -108.2344 73° East 531 611 37,000  Level Denver Center
Wed 01:25:12 PM 37.4922 -108.0361 73° East 532 612 37,000  Level Denver Center
Wed 01:26:14 PM 37.5353 -107.8681 72° East 528 608 37,000  Level Denver Center
Wed 01:27:16 PM 37.5875 -107.6700 72° East 533 613 37,000  Level Denver Center
Wed 01:28:18 PM 37.6317 -107.5017 72° East 527 606 37,000  Level Denver Center
Wed 01:29:20 PM 37.6808 -107.3019 73° East 532 612 37,000  Level Denver Center
Wed 01:30:22 PM 37.7247 -107.1314 72° East 532 612 37,000  Level Denver Center
Wed 01:31:24 PM 37.7756 -106.9328 72° East 534 615 37,000  Level Denver Center
Wed 01:32:26 PM 37.8211 -106.7469 73° East 539 620 37,000  Level Denver Center
Wed 01:33:28 PM 37.8628 -106.5742 73° East 539 620 37,000  Level Denver Center
Wed 01:34:30 PM 37.9103 -106.3828 72° East 541 623 37,000  Level Denver Center
Wed 01:35:32 PM 37.9522 -106.2078 73° East 543 625 37,000  Level Denver Center
Wed 01:36:34 PM 38.0003 -106.0006 74° East 541 623 37,000  Level Denver Center
Wed 01:37:36 PM 38.0289 -105.8094 79° East 546 628 37,000  Level Denver Center
Wed 01:38:38 PM 38.0553 -105.6181 80° East 548 631 37,000  Level Denver Center
Wed 01:40:00 PM 38.0857 -105.3879 80° East  Level FlightAware Approximate
Wed 01:40:42 PM 38.1072 -105.2356 80° East 549 632 37,000  Level Denver Center
Wed 01:41:44 PM 38.1381 -105.0089 80° East 556 640 37,000  Level Denver Center
Wed 01:42:46 PM 38.1642 -104.8167 80° East 552 635 37,000  Level Denver Center
Wed 01:43:48 PM 38.1897 -104.6222 80° East 556 640 37,000  Level Denver Center
Wed 01:44:50 PM 38.2156 -104.4292 80° East 555 639 37,000  Level Denver Center
Wed 01:45:52 PM 38.2408 -104.2364 80° East 552 635 37,000  Level Denver Center
Wed 01:46:54 PM 38.2656 -104.0403 81° East 558 642 37,000  Level Denver Center
Wed 01:47:56 PM 38.2939 -103.8131 81° East 557 641 37,000  Level Denver Center
Wed 01:48:58 PM 38.3164 -103.6175 82° East 557 641 37,000  Level Denver Center
Wed 01:50:00 PM 38.3383 -103.4361 81° East 558 642 37,000  Level Denver Center
Wed 01:51:02 PM 38.3644 -103.2161 81° East 561 646 37,000  Level Denver Center
Wed 01:52:04 PM 38.3858 -103.0275 82° East 563 648 37,000  Level Denver Center
Wed 01:53:05 PM 38.4103 -102.8072 82° East 563 648 37,000  Level Denver Center
Wed 01:54:07 PM 38.4317 -102.6175 82° East 565 650 37,000  Level Denver Center
Wed 01:56:11 PM 38.4794 -102.2061 81° East 567 652 37,000  Level Denver Center
Wed 01:57:13 PM 38.5042 -101.9847 82° East 565 650 37,000  Level Denver Center
Wed 01:58:15 PM 38.5289 -101.7953 80° East 564 649 37,000  Level Denver Center
Wed 01:59:17 PM 38.5561 -101.6042 80° East 568 654 37,000  Level Denver Center
Wed 02:00:19 PM 38.5861 -101.3844 80° East 565 650 37,000  Level Denver Center
Wed 02:01:21 PM 38.6114 -101.1953 80° East 562 647 37,000  Level Denver Center
Wed 02:02:23 PM 38.6419 -100.9725 80° East 567 652 37,000  Level Denver Center
Wed 02:03:25 PM 38.6669 -100.7833 80° East 564 649 37,000  Level Denver Center
Wed 02:04:26 PM 38.6967 -100.5611 80° East 565 650 37,000  Level Denver Center
Wed 02:05:28 PM 38.7217 -100.3692 80° East 568 654 37,000  Level Denver Center
Wed 02:06:30 PM 38.7497 -100.1450 81° East 568 654 37,000  Level Denver Center
Wed 02:07:32 PM 38.7733 -99.9550 81° East 565 650 37,000  Level Denver Center
Wed 02:08:34 PM 38.7975 -99.7617 81° East 568 654 37,000  Level Denver Center
Wed 02:09:36 PM 38.8244 -99.5372 81° East 572 658 37,000  Level Denver Center
Wed 02:10:38 PM 38.8450 -99.3456 82° East 572 658 37,000  Level Kansas City Center
Wed 02:11:38 PM 38.8694 -99.1414 81° East 578 665 37,000  Level Kansas City Center
Wed 02:12:41 PM 38.8953 -98.9356 81° East 580 667 37,000  Level Kansas City Center
Wed 02:13:43 PM 38.9172 -98.7314 82° East 578 665 37,000  Level Kansas City Center
Wed 02:14:44 PM 38.9403 -98.5275 82° East 576 663 37,000  Level Kansas City Center
Wed 02:15:48 PM 38.9683 -98.2836 82° East 572 658 37,000  Level Kansas City Center
Wed 02:16:49 PM 38.9903 -98.0806 82° East 572 658 37,000  Level Kansas City Center
Wed 02:17:49 PM 39.0281 -97.8867 76° East 562 647 37,000  Level Kansas City Center
Wed 02:18:54 PM 39.0758 -97.7036 71° East 551 634 37,000  Level Kansas City Center
Wed 02:19:54 PM 39.1294 -97.4953 72° East 549 632 37,000  Level Kansas City Center
Wed 02:20:58 PM 39.1744 -97.3186 72° East 544 626 37,000  Level Kansas City Center
Wed 02:21:59 PM 39.2278 -97.1122 71° East 544 626 37,000  Level Kansas City Center
Wed 02:23:02 PM 39.2719 -96.9342 72° East 543 625 37,000  Level Kansas City Center
Wed 02:24:02 PM 39.3222 -96.7258 73° East 544 626 37,000  Level Kansas City Center
Wed 02:25:04 PM 39.3664 -96.5478 72° East 544 626 37,000  Level Kansas City Center
Wed 02:26:07 PM 39.4117 -96.3622 72° East 540 621 37,000  Level Kansas City Center
Wed 02:27:10 PM 39.4625 -96.1500 73° East 540 621 37,000  Level Kansas City Center
Wed 02:28:11 PM 39.5017 -95.9839 73° East 541 623 37,000  Level Kansas City Center
Wed 02:29:12 PM 39.5453 -95.7722 75° East 544 626 37,000  Level Kansas City Center
Wed 02:30:16 PM 39.5800 -95.5906 76° East 541 623 37,000  Level Kansas City Center
Wed 02:31:17 PM 39.6214 -95.3792 76° East 539 620 37,000  Level Kansas City Center
Wed 02:32:18 PM 39.6569 -95.1997 76° East 534 615 37,000  Level Kansas City Center
Wed 02:33:21 PM 39.6922 -95.0192 76° East 535 616 37,000  Level Kansas City Center
Wed 02:34:22 PM 39.7325 -94.8103 76° East 532 612 37,000  Level Kansas City Center
Wed 02:35:26 PM 39.7667 -94.6308 76° East 533 613 37,000  Level Kansas City Center
Wed 02:36:28 PM 39.8069 -94.4217 76° East 534 615 37,000  Level Kansas City Center
Wed 02:37:29 PM 39.8408 -94.2439 76° East 530 610 37,000  Level Kansas City Center
Wed 02:38:31 PM 39.8764 -94.0381 77° East 542 624 37,000  Level Kansas City Center
Wed 02:39:35 PM 39.9097 -93.8511 77° East 536 617 37,000  Level Kansas City Center
Wed 02:40:35 PM 39.9447 -93.6661 76° East 531 611 37,000  Level Kansas City Center
Wed 02:41:36 PM 39.9808 -93.4808 76° East 533 613 37,000  Level Kansas City Center
Wed 02:42:40 PM 40.0186 -93.2517 78° East 546 628 37,000  Level Kansas City Center
Wed 02:43:40 PM 40.0542 -93.0653 76° East 539 620 37,000  Level Kansas City Center
Wed 02:44:44 PM 40.0911 -92.8525 77° East 540 621 37,000  Level Kansas City Center
Wed 02:45:45 PM 40.1219 -92.6669 78° East 545 627 37,000  Level Kansas City Center
Wed 02:46:48 PM 40.1631 -92.4878 73° East 541 623 37,000  Level Kansas City Center
Wed 02:47:48 PM 40.2428 -92.3000 61° Northeast 540 621 37,000  Level Kansas City Center
Wed 02:48:52 PM 40.3053 -92.1236 65° Northeast 544 626 37,000 -429 Level Kansas City Center
Wed 02:49:54 PM 40.3667 -91.9489 65° Northeast 537 618 36,100 -1,065 Descending Kansas City Center
Wed 02:50:56 PM 40.4400 -91.7394 65° Northeast 532 612 34,800 -1,279 Descending Kansas City Center
Wed 02:51:56 PM 40.4994 -91.5644 66° East 530 610 33,500 -1,286 Descending Kansas City Center
Wed 02:52:20 PM 40.5233 -91.4925 66° East 533 613 33,000 -349 Descending Chicago Center
Wed 02:53:22 PM 40.5831 -91.3175 66° East 532 612 33,000  Level Chicago Center
Wed 02:54:24 PM 40.6436 -91.1425 65° Northeast 530 610 33,000  Level Chicago Center
Wed 02:55:27 PM 40.7044 -90.9664 65° Northeast 529 609 33,000  Level Chicago Center
Wed 02:56:28 PM 40.7639 -90.7900 66° East 526 605 33,000  Level Chicago Center
Wed 02:57:30 PM 40.8350 -90.5775 66° East 526 605 33,000  Level Chicago Center
Wed 02:58:32 PM 40.8947 -90.3992 66° East 527 606 33,000 -871 Level Chicago Center
Wed 02:59:34 PM 40.9558 -90.2153 66° East 527 606 31,200 -1,790 Descending Chicago Center
Wed 03:00:36 PM 41.0128 -90.0439 66° East 514 592 29,300 -1,839 Descending Chicago Center
Wed 03:01:38 PM 41.0681 -89.8750 66° East 508 585 27,400 -1,839 Descending Chicago Center
Wed 03:02:40 PM 41.1203 -89.7125 67° East 487 560 25,500 -1,694 Descending Chicago Center
Wed 03:03:42 PM 41.1722 -89.5603 66° East 454 522 23,900 -1,694 Descending Chicago Center
Wed 03:04:44 PM 41.2306 -89.4158 62° Northeast 444 511 22,000 -1,984 Descending Chicago Center
Wed 03:05:46 PM 41.2978 -89.2494 62° Northeast 425 489 19,800 -1,984 Descending Chicago Center
Wed 03:06:48 PM 41.3467 -89.1247 62° Northeast 402 463 17,900 -1,742 Descending Chicago Center
Wed 03:07:50 PM 41.3956 -88.9942 63° Northeast 396 456 16,200 -1,984 Descending Chicago Center
Wed 03:08:52 PM 41.3739 -88.8594 102° East 377 434 13,800 -2,516 Descending Chicago Center
Wed 03:09:54 PM 41.3647 -88.7053 94° East 366 421 11,000 -1,355 Descending Chicago Center
Wed 03:10:56 PM 41.4342 -88.6158 44° Northeast 348 400 11,000  Level Chicago Center
Wed 03:11:58 PM 41.5094 -88.5325 40° Northeast 349 402 11,000 -290 Level Chicago Center
Wed 03:13:00 PM 41.5833 -88.4481 41° Northeast 348 400 10,400 -484 Descending Chicago Center
Wed 03:14:02 PM 41.6556 -88.3650 41° Northeast 342 394 10,000 -194 Descending Chicago Center
Wed 03:15:04 PM 41.7211 -88.2742 46° Northeast 339 390 10,000  Level Chicago Center
Wed 03:16:06 PM 41.7756 -88.1800 52° Northeast 316 364 10,000 -823 Level Chicago Center
Wed 03:17:08 PM 41.8319 -88.0836 52° Northeast 277 319 8,300 -1,113 Descending Chicago Center
Wed 03:18:10 PM 41.8758 -88.0050 53° Northeast 268 308 7,700 -585 Descending Chicago Center
Wed 03:18:30 PM 41.8833 -87.9667 75° East 245 282 7,500 -525 Descending Chicago TRACON
Wed 03:19:30 PM 41.8833 -87.8833 90° East 239 275 7,000 -450 Descending Chicago TRACON
Wed 03:20:30 PM 41.8833 -87.8000 90° East 236 272 6,600 -1,000 Descending Chicago TRACON
Wed 03:21:30 PM 41.8833 -87.7167 90° East 230 265 5,000 -1,250 Descending Chicago TRACON
Wed 03:22:30 PM 41.9333 -87.7000 14° North 179 206 4,100 -1,100 Descending Chicago TRACON
Wed 03:23:30 PM 41.9500 -87.7667 289° West 169 194 2,800 -1,150 Descending Chicago TRACON
Wed 03:24:30 PM 41.9667 -87.8167 294° West 149 171 1,800 -1,000 Descending Chicago TRACON

Login

Don't have an account? Register now (free) for customized features, flight alerts, and more!